Time;durP1;ratioP1;P1;durP2;ratioP2;P2;SDS_P1;SDS_P2;PMS_P1;PMS_P2;Temp;Humidity;BMP_temperature;BMP_pressure;BME280_temperature;BME280_humidity;BME280_pressure;Samples;Min_cycle;Max_cycle;Signal;HPM_P1;HPM_P2
2020/12/11 00:01:03;;;;;;;131.82;31.67;;;8.90;64.60;;;;;;4971535;28;20049;-64
2020/12/11 00:03:28;;;;;;;136.50;31.95;;;9.00;64.60;;;;;;4993736;28;20048;-64
2020/12/11 00:05:54;;;;;;;139.55;33.47;;;9.00;64.50;;;;;;4997225;28;20037;-64
2020/12/11 00:08:20;;;;;;;141.15;31.95;;;9.00;64.50;;;;;;4991363;28;20046;-64
2020/12/11 00:10:48;;;;;;;135.20;32.75;;;9.00;64.50;;;;;;4995630;28;20038;-64
2020/12/11 00:13:14;;;;;;;127.93;31.27;;;9.00;64.50;;;;;;4992795;28;20140;-64
2020/12/11 00:15:40;;;;;;;126.05;32.17;;;8.90;64.50;;;;;;4979614;28;20042;-64
2020/12/11 00:18:05;;;;;;;130.00;30.33;;;8.90;64.50;;;;;;4995725;28;20426;-64
2020/12/11 00:20:31;;;;;;;122.10;31.42;;;8.90;64.60;;;;;;5003231;28;20042;-64
2020/12/11 00:22:57;;;;;;;132.57;33.80;;;9.00;64.60;;;;;;4999378;28;20032;-64
2020/12/11 00:25:22;;;;;;;131.15;31.75;;;9.00;64.60;;;;;;4994609;28;20045;-64
2020/12/11 00:27:48;;;;;;;128.95;33.08;;;9.00;64.50;;;;;;4995482;28;20038;-64
2020/12/11 00:30:14;;;;;;;116.47;30.80;;;9.00;64.60;;;;;;4991605;28;20075;-64
2020/12/11 00:32:39;;;;;;;130.52;32.20;;;9.00;64.60;;;;;;4994323;28;20045;-64
2020/12/11 00:35:07;;;;;;;116.80;32.05;;;9.00;64.50;;;;;;4993597;28;20132;-64
2020/12/11 00:37:33;;;;;;;124.80;31.70;;;9.00;64.50;;;;;;4995822;28;20434;-64
2020/12/11 00:39:59;;;;;;;113.07;30.75;;;9.00;64.40;;;;;;4996541;28;20049;-64
2020/12/11 00:42:24;;;;;;;124.78;30.55;;;9.00;64.50;;;;;;4996622;28;20049;-64
2020/12/11 00:44:50;;;;;;;135.23;34.00;;;9.00;64.50;;;;;;5006498;28;20037;-64
2020/12/11 00:47:16;;;;;;;124.22;32.53;;;9.00;64.50;;;;;;4996898;28;20038;-64
2020/12/11 00:49:41;;;;;;;129.93;34.40;;;8.90;64.40;;;;;;5001167;28;20041;-64
2020/12/11 00:52:07;;;;;;;128.13;32.10;;;8.90;64.40;;;;;;4981055;28;20857;-64
2020/12/11 00:54:33;;;;;;;119.47;33.38;;;8.90;64.50;;;;;;5003260;28;20144;-64
2020/12/11 00:56:58;;;;;;;124.25;34.17;;;8.90;64.60;;;;;;4993551;28;20046;-64
2020/12/11 00:59:24;;;;;;;125.63;32.75;;;8.90;65.40;;;;;;5000511;28;20560;-64
2020/12/11 01:01:50;;;;;;;114.43;33.17;;;8.90;64.60;;;;;;4995518;28;20443;-64
2020/12/11 01:04:15;;;;;;;125.28;33.70;;;8.90;64.60;;;;;;4993380;28;20091;-63
2020/12/11 01:06:41;;;;;;;119.93;32.22;;;8.90;64.60;;;;;;5002426;28;20536;-64
2020/12/11 01:09:07;;;;;;;125.68;33.55;;;8.90;64.50;;;;;;4996147;28;20037;-64
2020/12/11 01:11:33;;;;;;;116.22;33.83;;;8.90;64.50;;;;;;4996832;28;20104;-64
2020/12/11 01:13:58;;;;;;;109.13;32.85;;;8.90;64.50;;;;;;4997638;28;20050;-64
2020/12/11 01:16:24;;;;;;;108.82;32.15;;;8.90;64.50;;;;;;4998687;28;20050;-64
2020/12/11 01:18:50;;;;;;;110.03;32.65;;;8.80;64.50;;;;;;4997196;28;20128;-64
2020/12/11 01:21:15;;;;;;;117.32;33.13;;;8.90;64.60;;;;;;4993477;28;20156;-64
2020/12/11 01:23:41;;;;;;;118.32;32.95;;;8.90;64.70;;;;;;5001356;28;20490;-64
2020/12/11 01:26:08;;;;;;;109.50;31.73;;;8.90;64.60;;;;;;4991911;28;20144;-64
2020/12/11 01:28:34;;;;;;;112.00;30.92;;;8.90;64.60;;;;;;4996098;28;20049;-64
2020/12/11 01:30:59;;;;;;;115.65;31.60;;;8.90;64.70;;;;;;5005590;28;20422;-64
2020/12/11 01:33:25;;;;;;;104.68;30.27;;;8.90;64.50;;;;;;5000803;28;20042;-64
2020/12/11 01:35:50;;;;;;;112.32;31.05;;;8.90;64.60;;;;;;4998337;28;21234;-64
2020/12/11 01:38:16;;;;;;;114.78;31.95;;;8.90;64.60;;;;;;4996015;28;20111;-64
2020/12/11 01:40:44;;;;;;;118.43;32.80;;;8.90;64.50;;;;;;4992286;28;20545;-64
2020/12/11 01:43:11;;;;;;;107.20;31.05;;;8.90;64.50;;;;;;4989011;28;20486;-64
2020/12/11 01:45:36;;;;;;;94.50;30.08;;;9.00;65.30;;;;;;4992347;28;20048;-64
2020/12/11 01:48:03;;;;;;;110.20;31.70;;;9.00;64.50;;;;;;4993023;28;20747;-64
2020/12/11 01:50:29;;;;;;;116.97;31.65;;;9.00;64.50;;;;;;4971494;28;20125;-64
2020/12/11 01:52:54;;;;;;;104.22;30.35;;;9.00;64.30;;;;;;4988780;28;20041;-64
2020/12/11 01:55:20;;;;;;;109.68;31.65;;;9.00;64.20;;;;;;4993222;28;20076;-64
2020/12/11 01:57:59;;;;;;;101.05;31.35;;;8.90;64.20;;;;;;4999414;28;20045;-64
2020/12/11 02:00:26;;;;;;;105.20;31.42;;;8.90;64.30;;;;;;4992787;28;20143;-64
2020/12/11 02:03:06;;;;;;;118.50;32.08;;;8.80;64.20;;;;;;4998908;28;20388;-64
2020/12/11 02:05:32;;;;;;;102.57;30.08;;;8.80;65.10;;;;;;5002447;28;21629;-64
2020/12/11 02:07:58;;;;;;;103.70;32.25;;;8.80;64.40;;;;;;5000910;28;20076;-64
2020/12/11 02:10:24;;;;;;;100.78;30.48;;;8.80;64.40;;;;;;4993647;28;20049;-64
2020/12/11 02:12:50;;;;;;;98.72;28.70;;;8.70;64.40;;;;;;4994332;28;20649;-64
2020/12/11 02:15:16;;;;;;;93.40;30.27;;;8.70;64.40;;;;;;4995488;28;20304;-63
2020/12/11 02:17:41;;;;;;;101.75;30.05;;;8.70;64.40;;;;;;5001102;28;20049;-64
2020/12/11 02:20:07;;;;;;;92.55;29.50;;;8.60;64.20;;;;;;4995509;28;20064;-64
2020/12/11 02:22:33;;;;;;;78.53;27.10;;;8.60;65.00;;;;;;4990185;28;20049;-64
2020/12/11 02:24:58;;;;;;;74.93;26.98;;;8.60;64.40;;;;;;4999629;28;20037;-63
2020/12/11 02:27:24;;;;;;;75.38;28.23;;;8.50;64.20;;;;;;4990546;28;20080;-63
2020/12/11 02:29:49;;;;;;;64.07;25.90;;;8.50;64.30;;;;;;4992460;28;20438;-64
2020/12/11 02:32:15;;;;;;;72.45;26.45;;;8.50;64.40;;;;;;4997956;28;20049;-64
2020/12/11 02:34:44;;;;;;;63.85;25.92;;;8.50;64.30;;;;;;4998723;28;20056;-64
2020/12/11 02:37:11;;;;;;;69.55;26.83;;;8.50;64.30;;;;;;5000260;28;20088;-64
2020/12/11 02:39:37;;;;;;;65.78;25.52;;;8.50;64.20;;;;;;4995423;28;21708;-64
2020/12/11 02:42:06;;;;;;;63.03;25.20;;;8.60;64.10;;;;;;4993344;28;20051;-64
2020/12/11 02:44:32;;;;;;;61.65;24.52;;;8.60;64.00;;;;;;4999119;28;20065;-64
2020/12/11 02:46:58;;;;;;;65.72;25.45;;;8.60;63.90;;;;;;5002986;28;20176;-64
2020/12/11 02:49:23;;;;;;;62.38;25.88;;;8.60;63.80;;;;;;4998704;28;20061;-64
2020/12/11 02:51:49;;;;;;;69.00;25.27;;;8.60;63.70;;;;;;4988987;28;20148;-64
2020/12/11 02:54:15;;;;;;;60.70;24.75;;;8.60;63.70;;;;;;4991582;28;20061;-64
2020/12/11 02:56:40;;;;;;;62.50;25.33;;;8.60;63.70;;;;;;4977691;28;20509;-66
2020/12/11 02:59:06;;;;;;;61.38;25.35;;;8.60;63.50;;;;;;4995209;28;20049;-64
2020/12/11 03:01:31;;;;;;;59.53;23.65;;;8.60;63.40;;;;;;4984567;28;20045;-64
2020/12/11 03:03:58;;;;;;;57.95;23.13;;;8.60;63.40;;;;;;4994431;28;20037;-64
2020/12/11 03:06:29;;;;;;;61.00;25.27;;;8.50;63.30;;;;;;4997033;28;20559;-64
2020/12/11 03:08:55;;;;;;;50.35;21.17;;;8.50;63.20;;;;;;4987153;28;20049;-64
2020/12/11 03:11:21;;;;;;;50.00;22.73;;;8.50;63.00;;;;;;4990088;28;20103;-64
2020/12/11 03:13:47;;;;;;;53.40;23.08;;;8.50;63.00;;;;;;4991618;28;20502;-64
2020/12/11 03:16:13;;;;;;;53.00;21.83;;;8.40;63.00;;;;;;4995720;28;20038;-64
2020/12/11 03:18:38;;;;;;;54.45;23.60;;;8.40;62.80;;;;;;5004569;28;20034;-64
2020/12/11 03:21:04;;;;;;;49.90;23.25;;;8.40;62.60;;;;;;4998524;28;20466;-64
2020/12/11 03:23:30;;;;;;;50.63;21.35;;;8.30;62.60;;;;;;4995675;28;20129;-64
2020/12/11 03:25:56;;;;;;;56.55;22.77;;;8.30;62.70;;;;;;5000139;28;20041;-64
2020/12/11 03:28:21;;;;;;;53.03;23.63;;;8.30;62.60;;;;;;4991468;28;20110;-64
2020/12/11 03:30:47;;;;;;;56.42;22.77;;;8.30;62.60;;;;;;4998207;28;20375;-64
2020/12/11 03:33:13;;;;;;;56.38;22.67;;;8.30;62.60;;;;;;4997630;28;20037;-64
2020/12/11 03:35:38;;;;;;;50.97;22.92;;;8.30;62.50;;;;;;4993541;28;20041;-64
2020/12/11 03:38:04;;;;;;;49.20;21.70;;;8.30;62.50;;;;;;4985743;28;20057;-64
2020/12/11 03:40:30;;;;;;;57.17;25.00;;;8.40;62.50;;;;;;4976052;28;20178;-64
2020/12/11 03:42:56;;;;;;;46.08;21.20;;;8.40;62.50;;;;;;4989116;28;20373;-64
2020/12/11 03:45:21;;;;;;;53.58;22.92;;;8.40;62.50;;;;;;4995208;28;20041;-64
2020/12/11 03:47:47;;;;;;;55.17;23.60;;;8.40;62.40;;;;;;4997163;28;21253;-63
2020/12/11 03:50:13;;;;;;;53.40;23.88;;;8.40;62.20;;;;;;5001259;28;20045;-64
2020/12/11 03:52:38;;;;;;;58.40;24.25;;;8.40;62.10;;;;;;4996578;28;20064;-64
2020/12/11 03:55:04;;;;;;;54.40;23.48;;;8.40;62.20;;;;;;4990889;28;20354;-64
2020/12/11 03:57:30;;;;;;;60.65;24.67;;;8.40;62.20;;;;;;4991657;28;20033;-64
2020/12/11 03:59:55;;;;;;;67.32;25.23;;;8.40;62.20;;;;;;5000132;28;20065;-67
2020/12/11 04:02:21;;;;;;;62.58;24.52;;;8.40;62.30;;;;;;4999922;28;20049;-67
2020/12/11 04:04:47;;;;;;;82.15;28.33;;;8.40;62.40;;;;;;4996126;28;20034;-67
2020/12/11 04:07:12;;;;;;;68.35;27.38;;;8.40;62.50;;;;;;4996445;28;20037;-64
2020/12/11 04:09:38;;;;;;;72.00;27.20;;;8.30;62.40;;;;;;5008355;28;20041;-63
2020/12/11 04:12:05;;;;;;;69.13;27.17;;;8.30;62.50;;;;;;4981067;28;20053;-64
2020/12/11 04:14:31;;;;;;;66.10;27.10;;;8.30;62.50;;;;;;5005127;28;20044;-64
2020/12/11 04:16:59;;;;;;;77.25;28.42;;;8.30;62.50;;;;;;4984077;28;20041;-64
2020/12/11 04:19:25;;;;;;;65.35;26.58;;;8.20;62.50;;;;;;5001853;28;20034;-64
2020/12/11 04:21:52;;;;;;;58.33;24.50;;;8.20;62.40;;;;;;4994569;28;20095;-64
2020/12/11 04:24:18;;;;;;;61.63;25.60;;;8.20;62.40;;;;;;4995742;28;20049;-64
2020/12/11 04:26:44;;;;;;;64.90;26.73;;;8.10;62.30;;;;;;4997776;28;20494;-64
2020/12/11 04:29:10;;;;;;;65.72;25.90;;;8.10;61.80;;;;;;4993875;28;20163;-64
2020/12/11 04:31:36;;;;;;;70.65;27.02;;;8.10;62.50;;;;;;4987195;28;20041;-64
2020/12/11 04:34:02;;;;;;;65.20;26.48;;;8.10;62.60;;;;;;4996445;28;20520;-64
2020/12/11 04:36:28;;;;;;;63.30;25.88;;;8.10;62.70;;;;;;4990400;28;20034;-64
2020/12/11 04:38:54;;;;;;;64.72;25.85;;;8.10;62.70;;;;;;4977636;28;20537;-64
2020/12/11 04:41:20;;;;;;;69.82;26.95;;;8.10;62.80;;;;;;4991743;28;20634;-64
2020/12/11 04:43:50;;;;;;;69.45;25.73;;;8.10;62.80;;;;;;4994778;28;20084;-64
2020/12/11 04:46:16;;;;;;;76.68;27.00;;;8.10;62.80;;;;;;4992662;28;20581;-64
2020/12/11 04:48:42;;;;;;;66.38;26.85;;;8.10;62.90;;;;;;4990535;28;20045;-64
2020/12/11 04:51:08;;;;;;;65.90;25.27;;;8.10;62.80;;;;;;4975086;28;20065;-64
2020/12/11 04:53:36;;;;;;;73.32;27.60;;;8.10;62.90;;;;;;4992929;28;20077;-64
2020/12/11 04:56:05;;;;;;;73.35;26.65;;;8.10;62.90;;;;;;4999335;28;20053;-64
2020/12/11 04:58:34;;;;;;;72.00;26.02;;;8.10;62.80;;;;;;4977231;28;20573;-64
2020/12/11 05:01:06;;;;;;;65.97;25.58;;;8.10;62.80;;;;;;4990138;28;20119;-65
2020/12/11 05:03:33;;;;;;;70.85;26.23;;;8.10;62.80;;;;;;5004996;28;20039;-64
2020/12/11 05:05:59;;;;;;;72.65;26.67;;;8.10;62.70;;;;;;4995143;28;20528;-64
2020/12/11 05:08:26;;;;;;;70.20;26.42;;;8.10;62.90;;;;;;4999941;28;20041;-64
2020/12/11 05:10:51;;;;;;;67.32;26.63;;;8.10;62.80;;;;;;5002377;28;20034;-66
2020/12/11 05:13:22;;;;;;;80.05;27.98;;;8.10;62.80;;;;;;5001807;28;20449;-66
2020/12/11 05:16:05;;;;;;;66.88;25.33;;;8.10;62.70;;;;;;4996744;28;20429;-65
2020/12/11 05:18:31;;;;;;;65.47;26.65;;;8.10;62.70;;;;;;4987857;28;20362;-64
2020/12/11 05:21:17;;;;;;;63.78;26.33;;;8.00;62.60;;;;;;5003516;28;20094;-64
2020/12/11 05:24:03;;;;;;;68.88;27.20;;;8.00;62.70;;;;;;5004108;28;20049;-64
2020/12/11 05:26:30;;;;;;;73.95;25.38;;;8.00;62.60;;;;;;5001075;28;20100;-64
2020/12/11 05:28:57;;;;;;;66.65;26.27;;;8.00;62.60;;;;;;4996063;28;20048;-64
2020/12/11 05:31:23;;;;;;;62.35;25.35;;;7.90;62.60;;;;;;5006603;28;20046;-64
2020/12/11 05:34:10;;;;;;;56.97;25.70;;;7.90;62.70;;;;;;5000952;28;20524;-64
2020/12/11 05:36:43;;;;;;;61.92;24.92;;;7.90;62.70;;;;;;5010951;28;20379;-64
2020/12/11 05:39:09;;;;;;;61.97;25.17;;;7.90;62.70;;;;;;5006922;28;20045;-64
2020/12/11 05:41:35;;;;;;;68.32;26.05;;;7.90;62.60;;;;;;5006871;28;20030;-64
2020/12/11 05:44:01;;;;;;;63.45;25.92;;;7.90;62.70;;;;;;5003285;28;20038;-64
2020/12/11 05:46:31;;;;;;;66.63;26.70;;;7.90;62.60;;;;;;5006784;28;20065;-64
2020/12/11 05:49:00;;;;;;;64.93;26.45;;;7.90;62.70;;;;;;4997896;28;20052;-64
2020/12/11 05:51:37;;;;;;;67.40;25.60;;;7.90;62.60;;;;;;5001499;28;20088;-64
2020/12/11 05:54:04;;;;;;;66.20;25.45;;;7.90;62.60;;;;;;4994645;23;20114;-60
2020/12/11 05:56:32;;;;;;;62.88;25.45;;;7.90;62.40;;;;;;4978036;28;20033;-61
2020/12/11 05:59:01;;;;;;;59.55;25.58;;;7.80;62.40;;;;;;4979821;28;20038;-61
2020/12/11 06:01:28;;;;;;;64.50;26.55;;;7.80;62.50;;;;;;4962664;28;20052;-61
2020/12/11 06:03:55;;;;;;;60.50;24.67;;;7.80;62.60;;;;;;4975765;28;20038;-61
2020/12/11 06:06:24;;;;;;;58.58;23.70;;;7.80;62.60;;;;;;4969402;28;20192;-60
2020/12/11 06:08:53;;;;;;;58.70;24.25;;;7.70;62.60;;;;;;4955942;28;20092;-60
2020/12/11 06:11:26;;;;;;;58.42;24.30;;;7.70;62.50;;;;;;4966826;28;20042;-60
2020/12/11 06:13:59;;;;;;;69.55;25.45;;;7.70;62.50;;;;;;4965115;28;20043;-61
2020/12/11 06:16:26;;;;;;;63.55;24.92;;;7.70;62.50;;;;;;4951706;28;20038;-61
2020/12/11 06:18:59;;;;;;;68.13;25.48;;;7.60;62.40;;;;;;4963156;28;20057;-61
2020/12/11 06:21:26;;;;;;;66.97;24.92;;;7.60;62.50;;;;;;4962338;28;20033;-60
2020/12/11 06:23:52;;;;;;;62.00;24.75;;;7.50;62.50;;;;;;4966272;28;20054;-60
2020/12/11 06:26:17;;;;;;;64.97;24.48;;;7.50;62.60;;;;;;4962943;28;20049;-61
2020/12/11 06:28:51;;;;;;;63.50;25.50;;;7.50;62.70;;;;;;4966301;28;20090;-60
2020/12/11 06:31:24;;;;;;;69.22;25.55;;;7.50;62.70;;;;;;4966529;28;20121;-61
2020/12/11 06:33:55;;;;;;;71.15;25.60;;;7.50;62.70;;;;;;4964620;28;20056;-61
2020/12/11 06:36:21;;;;;;;68.18;24.80;;;7.40;62.80;;;;;;4962373;28;20038;-61
2020/12/11 06:38:51;;;;;;;69.97;26.45;;;7.40;62.80;;;;;;4965164;28;20038;-61
2020/12/11 06:41:32;;;;;;;66.28;25.67;;;7.40;63.00;;;;;;4948137;28;20042;-61
2020/12/11 06:44:18;;;;;;;62.03;24.38;;;7.40;63.00;;;;;;4963201;28;20058;-60
2020/12/11 06:47:03;;;;;;;61.03;24.67;;;7.40;63.10;;;;;;4950933;28;20169;-60
2020/12/11 06:49:29;;;;;;;64.95;25.70;;;7.40;63.10;;;;;;4963852;28;21887;-60
2020/12/11 06:51:54;;;;;;;62.60;24.70;;;7.40;63.10;;;;;;4969179;28;20038;-60
2020/12/11 06:54:23;;;;;;;61.50;24.00;;;7.40;63.20;;;;;;4964055;28;20157;-61
2020/12/11 06:56:52;;;;;;;66.07;25.30;;;7.30;63.00;;;;;;4962942;28;20050;-61
2020/12/11 06:59:22;;;;;;;72.28;26.52;;;7.30;63.80;;;;;;4966426;28;20070;-61
2020/12/11 07:01:51;;;;;;;56.78;25.02;;;7.30;63.00;;;;;;4961768;28;22535;-62
2020/12/11 07:04:17;;;;;;;69.45;25.50;;;7.30;62.90;;;;;;4947793;28;20065;-61
2020/12/11 07:06:50;;;;;;;58.15;25.17;;;7.30;62.80;;;;;;4946891;28;20534;-60
2020/12/11 07:09:17;;;;;;;64.75;25.73;;;7.20;63.40;;;;;;4960933;28;20415;-60
2020/12/11 07:11:44;;;;;;;68.15;26.58;;;7.20;62.70;;;;;;4948506;28;20108;-60
2020/12/11 07:14:10;;;;;;;60.83;24.45;;;7.20;62.70;;;;;;4953398;28;20104;-60
2020/12/11 07:16:43;;;;;;;64.80;25.83;;;7.20;62.70;;;;;;4947302;28;20048;-60
2020/12/11 07:19:09;;;;;;;68.07;25.58;;;7.10;62.80;;;;;;4966214;28;20050;-61
2020/12/11 07:21:40;;;;;;;63.10;24.80;;;7.10;62.80;;;;;;4967426;28;20744;-61
2020/12/11 07:24:08;;;;;;;60.20;24.73;;;7.10;62.60;;;;;;4963204;28;20680;-60
2020/12/11 07:26:33;;;;;;;64.47;25.83;;;7.10;62.80;;;;;;4968622;28;20042;-61
2020/12/11 07:29:06;;;;;;;66.18;27.48;;;7.00;62.80;;;;;;4967717;28;20038;-61
2020/12/11 07:31:43;;;;;;;58.20;24.23;;;7.00;62.90;;;;;;4968901;28;20378;-60
2020/12/11 07:34:16;;;;;;;63.58;27.05;;;7.00;62.90;;;;;;4964955;28;20049;-60
2020/12/11 07:36:56;;;;;;;68.43;27.15;;;7.00;62.90;;;;;;4966274;28;20050;-60
2020/12/11 07:39:27;;;;;;;62.00;25.75;;;7.10;63.00;;;;;;4963774;28;20086;-60
2020/12/11 07:41:54;;;;;;;59.13;25.27;;;7.10;63.00;;;;;;4949049;28;20078;-61
2020/12/11 07:44:34;;;;;;;61.20;25.45;;;7.10;63.00;;;;;;4966196;28;20042;-60
2020/12/11 07:47:15;;;;;;;64.63;25.60;;;7.10;63.00;;;;;;4963046;28;20047;-64
2020/12/11 07:49:42;;;;;;;63.85;26.45;;;7.10;63.00;;;;;;4967009;28;20144;-60
2020/12/11 07:52:10;;;;;;;60.13;25.08;;;7.10;63.00;;;;;;4963426;28;20593;-60
2020/12/11 07:54:37;;;;;;;67.07;27.65;;;7.10;63.00;;;;;;4955286;28;20057;-60
2020/12/11 07:57:13;;;;;;;63.10;25.67;;;7.10;62.90;;;;;;4959514;28;20065;-60
2020/12/11 07:59:40;;;;;;;55.88;24.58;;;7.10;62.90;;;;;;4963966;28;20069;-60
2020/12/11 08:02:05;;;;;;;65.13;27.10;;;7.20;62.90;;;;;;4962681;28;20050;-60
2020/12/11 08:04:35;;;;;;;60.75;24.92;;;7.20;63.00;;;;;;4970077;28;20038;-60
2020/12/11 08:07:01;;;;;;;58.75;25.42;;;7.20;62.80;;;;;;4966963;28;20483;-60
2020/12/11 08:09:33;;;;;;;61.25;24.73;;;7.10;63.40;;;;;;4967921;28;20129;-61
2020/12/11 08:12:20;;;;;;;57.78;24.73;;;7.20;62.80;;;;;;4962283;28;20308;-61
2020/12/11 08:14:46;;;;;;;60.75;25.55;;;7.20;63.50;;;;;;4969755;28;20034;-60
2020/12/11 08:17:14;;;;;;;55.65;24.83;;;7.20;62.60;;;;;;4967201;28;20421;-60
2020/12/11 08:19:41;;;;;;;62.10;26.23;;;7.20;62.60;;;;;;4964331;28;20045;-61
2020/12/11 08:22:16;;;;;;;55.15;25.00;;;7.20;62.60;;;;;;4967988;28;20057;-60
2020/12/11 08:24:43;;;;;;;62.45;23.90;;;7.20;62.70;;;;;;4968954;28;20038;-61
2020/12/11 08:27:24;;;;;;;56.72;24.40;;;7.20;62.70;;;;;;4965893;28;20226;-61
2020/12/11 08:30:04;;;;;;;57.10;24.17;;;7.20;62.80;;;;;;4969016;28;20105;-62
2020/12/11 08:32:32;;;;;;;53.65;24.13;;;7.20;62.80;;;;;;4963777;28;20046;-60
2020/12/11 08:34:57;;;;;;;58.70;24.42;;;7.20;62.80;;;;;;4964314;28;20530;-60
2020/12/11 08:37:23;;;;;;;55.92;24.88;;;7.20;62.80;;;;;;4958172;28;20070;-60
2020/12/11 08:39:49;;;;;;;56.67;24.42;;;7.30;62.90;;;;;;4951596;28;20054;-60
2020/12/11 08:42:22;;;;;;;56.47;26.00;;;7.30;63.00;;;;;;4971112;28;20039;-60
2020/12/11 08:50:13;;;;;;;53.58;25.05;;;7.40;62.80;;;;;;4966313;28;20051;-60
2020/12/11 08:52:38;;;;;;;57.72;24.55;;;7.40;62.80;;;;;;4967663;28;20046;-60
2020/12/11 08:55:04;;;;;;;57.80;25.75;;;7.50;62.80;;;;;;4966826;28;20620;-60
2020/12/11 08:57:32;;;;;;;55.58;24.10;;;7.50;62.70;;;;;;4969621;28;20122;-60
2020/12/11 08:59:58;;;;;;;55.97;24.85;;;7.50;62.70;;;;;;4964845;28;20129;-61
2020/12/11 09:02:24;;;;;;;49.97;22.17;;;7.60;62.70;;;;;;4970050;28;20050;-61
2020/12/11 09:04:49;;;;;;;57.15;23.45;;;7.60;62.70;;;;;;4953097;28;20064;-61
2020/12/11 09:07:15;;;;;;;54.38;23.33;;;7.60;62.60;;;;;;4962538;28;20046;-60
2020/12/11 09:09:41;;;;;;;55.55;24.45;;;7.70;62.60;;;;;;4965613;28;20125;-60
2020/12/11 09:12:06;;;;;;;51.05;23.48;;;7.70;62.50;;;;;;4962899;28;20380;-60
2020/12/11 09:14:33;;;;;;;55.75;24.60;;;7.80;62.40;;;;;;4969175;28;20038;-60
2020/12/11 09:16:59;;;;;;;49.70;22.45;;;7.80;62.30;;;;;;4967029;28;20104;-61
2020/12/11 09:19:24;;;;;;;48.90;22.30;;;7.80;62.20;;;;;;4947716;28;20527;-60
2020/12/11 09:21:50;;;;;;;49.17;23.67;;;7.80;62.00;;;;;;4972881;28;20069;-62
2020/12/11 09:24:15;;;;;;;51.85;24.15;;;7.90;62.00;;;;;;4967001;28;20078;-60
2020/12/11 09:26:41;;;;;;;57.00;24.65;;;7.90;62.00;;;;;;4962876;28;20043;-60
2020/12/11 09:29:17;;;;;;;48.67;21.08;;;7.90;62.00;;;;;;4966607;28;20046;-62
2020/12/11 09:31:46;;;;;;;49.63;22.88;;;7.90;62.00;;;;;;4970347;28;20541;-60
2020/12/11 09:34:11;;;;;;;53.85;22.92;;;8.00;62.00;;;;;;4966213;28;20057;-60
2020/12/11 09:36:42;;;;;;;50.97;23.58;;;8.00;61.80;;;;;;4949126;28;20046;-60
2020/12/11 09:39:08;;;;;;;48.42;22.27;;;8.00;61.70;;;;;;4966096;28;20038;-61
2020/12/11 09:41:42;;;;;;;48.70;22.50;;;8.10;61.60;;;;;;4966322;28;20073;-60
2020/12/11 09:46:51;;;;;;;46.75;21.85;;;8.10;61.30;;;;;;4969771;28;20076;-60
2020/12/11 09:49:25;;;;;;;44.42;21.65;;;8.10;61.40;;;;;;4954722;28;20058;-61
2020/12/11 09:52:24;;;;;;;42.33;21.70;;;8.10;61.40;;;;;;4968343;28;20041;-60
2020/12/11 09:54:50;;;;;;;45.85;21.60;;;8.10;61.20;;;;;;4964300;28;20577;-60
2020/12/11 09:57:18;;;;;;;41.55;21.38;;;8.10;61.20;;;;;;4968267;28;20049;-60
2020/12/11 09:59:50;;;;;;;41.75;20.92;;;8.10;61.20;;;;;;4967206;28;20979;-61
2020/12/11 10:02:42;;;;;;;41.80;21.05;;;8.10;61.20;;;;;;4972268;28;20619;-60
2020/12/11 10:05:09;;;;;;;50.22;21.92;;;8.20;61.20;;;;;;4966361;28;20116;-61
2020/12/11 10:07:35;;;;;;;41.13;21.25;;;8.20;61.00;;;;;;4966242;28;20034;-61
2020/12/11 10:10:01;;;;;;;46.53;22.50;;;8.20;61.00;;;;;;4964477;28;20052;-61
2020/12/11 10:12:28;;;;;;;39.42;20.50;;;8.20;61.00;;;;;;4965603;28;20057;-61
2020/12/11 10:14:58;;;;;;;42.08;20.88;;;8.20;61.10;;;;;;4965225;28;20039;-60
2020/12/11 10:17:24;;;;;;;40.90;20.08;;;8.30;61.00;;;;;;4966729;28;20042;-60
2020/12/11 10:19:50;;;;;;;43.47;20.98;;;8.30;60.80;;;;;;4967858;28;20038;-60
2020/12/11 10:22:16;;;;;;;40.20;21.08;;;8.30;60.70;;;;;;4965197;28;20046;-61
2020/12/11 10:24:41;;;;;;;49.78;23.02;;;8.40;60.60;;;;;;4968907;28;20042;-60
2020/12/11 10:27:07;;;;;;;40.38;19.55;;;8.40;60.60;;;;;;4968348;28;20046;-61
2020/12/11 10:29:32;;;;;;;39.83;20.63;;;8.40;60.40;;;;;;4967397;28;20047;-61
2020/12/11 10:31:58;;;;;;;40.85;20.90;;;8.40;60.20;;;;;;4966174;28;20764;-60
2020/12/11 10:34:24;;;;;;;44.15;21.27;;;8.40;60.30;;;;;;4966690;28;20050;-60
2020/12/11 10:36:49;;;;;;;41.53;20.40;;;8.40;60.30;;;;;;4965417;28;20047;-61
2020/12/11 10:39:15;;;;;;;41.40;20.42;;;8.50;60.30;;;;;;4968488;28;20455;-61
2020/12/11 10:41:41;;;;;;;39.15;19.80;;;8.50;60.10;;;;;;4966136;28;20050;-61
2020/12/11 10:44:07;;;;;;;38.88;20.15;;;8.50;60.10;;;;;;4965174;28;20042;-62
2020/12/11 10:46:32;;;;;;;40.83;20.05;;;8.50;60.00;;;;;;4965357;28;20042;-61
2020/12/11 10:48:58;;;;;;;38.67;19.98;;;8.50;60.00;;;;;;4966490;28;20143;-61
2020/12/11 10:51:24;;;;;;;37.50;19.45;;;8.60;59.90;;;;;;4967982;28;20049;-60
2020/12/11 10:53:49;;;;;;;39.83;19.23;;;8.60;59.80;;;;;;4966468;28;20422;-61
2020/12/11 10:56:19;;;;;;;35.95;18.98;;;8.60;59.70;;;;;;4967167;28;20089;-61
2020/12/11 10:58:45;;;;;;;35.28;19.55;;;8.60;60.40;;;;;;4949936;28;20486;-60
2020/12/11 11:01:13;;;;;;;39.42;19.83;;;8.60;59.70;;;;;;4966272;28;20046;-60
2020/12/11 11:03:39;;;;;;;38.75;20.67;;;8.70;59.70;;;;;;4969067;28;20062;-61
2020/12/11 11:09:28;;;;;;;37.35;19.33;;;8.80;59.60;;;;;;4965133;28;20130;-62
2020/12/11 11:11:32;;;;;;;35.30;19.13;;;8.80;59.60;;;;;;4959019;28;20038;-60
2020/12/11 11:21:57;;;;;;;32.55;18.17;;;9.10;59.10;;;;;;4966764;28;20038;-61
2020/12/11 11:24:45;;;;;;;35.08;19.98;;;9.10;58.90;;;;;;4966876;28;20039;-61
2020/12/11 11:29:39;;;;;;;33.90;18.75;;;9.10;58.80;;;;;;4968181;28;20043;-61
2020/12/11 11:32:04;;;;;;;33.53;18.33;;;9.20;58.80;;;;;;4966238;28;20093;-62
2020/12/11 11:34:30;;;;;;;37.42;19.08;;;9.20;58.70;;;;;;4964530;28;20047;-61
2020/12/11 11:36:56;;;;;;;32.38;17.75;;;9.30;58.60;;;;;;4965935;28;20046;-61
2020/12/11 11:39:22;;;;;;;32.53;17.30;;;9.40;58.60;;;;;;4970983;28;20046;-61
2020/12/11 11:41:47;;;;;;;31.67;18.80;;;9.40;58.30;;;;;;4964458;28;20049;-61
2020/12/11 11:46:50;;;;;;;31.25;17.92;;;9.50;58.30;;;;;;4964809;28;20430;-61
2020/12/11 11:49:25;;;;;;;31.88;17.85;;;9.50;58.10;;;;;;4966397;28;20039;-62
2020/12/11 11:54:42;;;;;;;28.80;16.52;;;9.60;57.70;;;;;;4956048;28;20129;-61
2020/12/11 11:57:08;;;;;;;32.83;17.70;;;9.60;57.80;;;;;;4988660;23;20060;-65
2020/12/11 11:59:33;;;;;;;29.27;17.15;;;9.60;57.60;;;;;;4985471;28;20069;-66
2020/12/11 12:01:59;;;;;;;31.00;17.25;;;9.60;57.50;;;;;;4982707;28;20108;-66
2020/12/11 12:04:25;;;;;;;29.02;17.08;;;9.60;57.50;;;;;;4987394;28;20068;-66
2020/12/11 12:06:50;;;;;;;31.80;17.90;;;9.60;57.60;;;;;;4990190;28;20048;-66
2020/12/11 12:09:17;;;;;;;32.78;17.98;;;9.60;57.50;;;;;;4991035;28;20514;-65
2020/12/11 12:11:44;;;;;;;31.20;17.15;;;9.70;57.50;;;;;;4992330;28;20046;-66
2020/12/11 12:14:10;;;;;;;28.95;16.60;;;9.70;57.30;;;;;;4989398;28;20581;-65
2020/12/11 12:16:36;;;;;;;29.83;16.63;;;9.80;57.40;;;;;;4988911;28;20042;-65
2020/12/11 12:19:03;;;;;;;30.52;17.15;;;9.80;57.10;;;;;;4990283;28;20115;-66
2020/12/11 12:21:52;;;;;;;26.90;15.50;;;9.80;56.90;;;;;;4994423;28;20498;-66
2020/12/11 12:29:36;;;;;;;32.65;17.63;;;9.80;56.60;;;;;;4996648;28;20060;-66
2020/12/11 12:32:14;;;;;;;32.70;16.85;;;9.80;57.20;;;;;;4991072;28;20065;-66
2020/12/11 12:44:41;;;;;;;31.63;18.55;;;10.00;56.80;;;;;;4990462;28;20395;-66
2020/12/11 12:47:07;;;;;;;29.50;16.73;;;10.00;56.70;;;;;;4980642;28;20054;-66
2020/12/11 12:49:33;;;;;;;29.75;16.95;;;10.10;56.50;;;;;;4985413;28;20042;-66
2020/12/11 12:51:58;;;;;;;30.15;17.00;;;10.10;56.40;;;;;;4986423;28;20045;-66
2020/12/11 12:54:25;;;;;;;32.08;16.75;;;10.20;56.40;;;;;;4985663;28;20062;-66
2020/12/11 12:56:57;;;;;;;30.50;16.90;;;10.30;56.20;;;;;;4981917;28;20052;-66
2020/12/11 13:02:07;;;;;;;32.83;16.13;;;10.30;56.10;;;;;;4974394;28;20042;-66
2020/12/11 13:06:58;;;;;;;29.15;16.48;;;10.40;55.70;;;;;;4971320;28;20033;-66
2020/12/11 13:09:25;;;;;;;28.95;15.65;;;10.50;55.60;;;;;;4973192;28;20096;-66
2020/12/11 13:11:51;;;;;;;29.40;15.82;;;10.40;55.40;;;;;;4978628;28;20486;-66
2020/12/11 13:14:17;;;;;;;30.30;15.95;;;10.50;55.30;;;;;;4982654;28;20052;-66
2020/12/11 13:16:42;;;;;;;27.30;15.93;;;10.40;55.10;;;;;;4985683;28;20038;-65
2020/12/11 13:19:11;;;;;;;29.10;15.75;;;10.30;55.10;;;;;;4989999;28;22489;-66
2020/12/11 13:21:42;;;;;;;30.27;17.05;;;10.30;55.70;;;;;;4992143;28;20038;-66
2020/12/11 13:26:54;;;;;;;30.33;15.70;;;10.20;55.40;;;;;;4994856;28;20196;-66
2020/12/11 13:29:20;;;;;;;31.27;15.43;;;10.10;55.40;;;;;;5003157;28;20092;-66